createdAt,value
2018-01-10T00:00:13.731Z,99.00
2018-01-10T00:02:41.245Z,98.90
2018-01-10T00:05:08.714Z,99.00
2018-01-10T00:07:36.212Z,98.90
2018-01-10T00:10:04.479Z,99.00
2018-01-10T00:12:32.850Z,99.00
2018-01-10T00:15:00.365Z,99.00
2018-01-10T00:17:27.880Z,99.20
2018-01-10T00:19:55.395Z,99.00
2018-01-10T00:22:22.869Z,99.00
2018-01-10T00:24:50.381Z,99.00
2018-01-10T00:27:17.822Z,99.00
2018-01-10T00:29:45.334Z,99.00
2018-01-10T00:32:12.847Z,99.00
2018-01-10T00:34:40.339Z,99.00
2018-01-10T00:37:07.811Z,99.00
2018-01-10T00:39:35.239Z,99.00
2018-01-10T00:42:02.772Z,98.90
2018-01-10T00:44:30.509Z,99.30
2018-01-10T00:46:58.001Z,98.90
2018-01-10T00:49:25.503Z,98.90
2018-01-10T00:51:52.999Z,98.90
2018-01-10T00:54:20.624Z,98.90
2018-01-10T00:56:48.109Z,98.90
2018-01-10T00:59:16.377Z,98.90
2018-01-10T01:01:43.895Z,98.90
2018-01-10T01:04:12.106Z,98.90
2018-01-10T01:06:39.621Z,98.90
2018-01-10T01:09:07.124Z,98.90
2018-01-10T01:11:34.647Z,98.90
2018-01-10T01:14:02.178Z,98.90
2018-01-10T01:16:29.684Z,98.90
2018-01-10T01:18:57.190Z,98.90
2018-01-10T01:21:24.674Z,98.90
2018-01-10T01:23:52.928Z,98.90
2018-01-10T01:26:20.438Z,98.90
2018-01-10T01:28:47.909Z,98.90
2018-01-10T01:31:15.373Z,98.90
2018-01-10T01:33:42.915Z,98.90
2018-01-10T01:36:11.221Z,99.00
2018-01-10T01:38:38.705Z,98.90
2018-01-10T01:41:06.213Z,98.90
2018-01-10T01:43:34.484Z,99.00
2018-01-10T01:46:01.976Z,99.00
2018-01-10T01:48:29.479Z,99.00
2018-01-10T01:50:56.982Z,99.00
2018-01-10T01:53:25.242Z,99.00
2018-01-10T01:55:53.578Z,99.00
2018-01-10T01:58:21.077Z,98.90
2018-01-10T02:00:48.610Z,99.00
2018-01-10T02:03:16.082Z,99.00
2018-01-10T02:05:43.596Z,99.00
2018-01-10T02:08:11.918Z,99.00
2018-01-10T02:10:39.422Z,99.00
2018-01-10T02:13:06.943Z,99.00
2018-01-10T02:15:34.422Z,99.30
2018-01-10T02:18:03.267Z,99.00
2018-01-10T02:20:31.518Z,99.00
2018-01-10T02:22:59.019Z,99.00
2018-01-10T02:25:27.297Z,99.00
2018-01-10T02:27:55.567Z,99.00
2018-01-10T02:30:23.865Z,99.00
2018-01-10T02:32:51.305Z,99.00
2018-01-10T02:35:19.551Z,99.00
2018-01-10T02:37:47.139Z,99.00
2018-01-10T02:40:14.580Z,99.00
2018-01-10T02:42:42.085Z,99.00
2018-01-10T02:45:10.455Z,99.00
2018-01-10T02:47:38.694Z,99.00
2018-01-10T02:50:06.160Z,99.00
2018-01-10T02:52:33.679Z,99.00
2018-01-10T02:55:01.988Z,99.00
2018-01-10T02:57:29.456Z,99.00
2018-01-10T02:59:56.954Z,99.00
2018-01-10T03:02:24.473Z,99.00
2018-01-10T03:04:52.154Z,99.00
2018-01-10T03:07:19.631Z,99.00
2018-01-10T03:09:47.118Z,99.00
2018-01-10T03:12:15.403Z,99.00
2018-01-10T03:14:42.862Z,99.00
2018-01-10T03:17:11.094Z,99.20
2018-01-10T03:19:38.590Z,99.00
2018-01-10T03:22:06.104Z,99.00
2018-01-10T03:24:33.595Z,99.10
2018-01-10T03:27:01.078Z,99.10
2018-01-10T03:29:28.582Z,99.10
2018-01-10T03:31:56.088Z,99.10
2018-01-10T03:34:23.547Z,99.10
2018-01-10T03:36:51.183Z,99.10
2018-01-10T03:39:18.778Z,99.10
2018-01-10T03:41:46.377Z,99.20
2018-01-10T03:44:13.868Z,99.20
2018-01-10T03:46:41.363Z,99.20
2018-01-10T03:49:08.868Z,99.20
2018-01-10T03:51:36.312Z,99.20
2018-01-10T03:54:03.811Z,99.20
2018-01-10T03:56:32.052Z,99.20
2018-01-10T03:58:59.553Z,99.20
2018-01-10T04:01:27.003Z,99.20
2018-01-10T04:03:55.280Z,99.30
2018-01-10T04:06:22.769Z,99.30
2018-01-10T04:08:51.023Z,99.20
2018-01-10T04:11:18.482Z,99.20
2018-01-10T04:13:46.029Z,99.50
2018-01-10T04:16:13.465Z,99.20
2018-01-10T04:18:40.974Z,99.20
2018-01-10T04:21:08.467Z,99.30
2018-01-10T04:23:35.976Z,99.40
2018-01-10T04:26:03.475Z,99.30
2018-01-10T04:28:30.958Z,99.30
2018-01-10T04:30:58.429Z,99.30
2018-01-10T04:33:25.949Z,99.30
2018-01-10T04:35:53.431Z,99.30
2018-01-10T04:38:21.713Z,99.20
2018-01-10T04:40:49.943Z,99.20
2018-01-10T04:43:17.474Z,99.20
2018-01-10T04:45:44.934Z,99.20
2018-01-10T04:48:12.414Z,99.20
2018-01-10T04:50:39.913Z,99.30
2018-01-10T04:53:07.380Z,99.30
2018-01-10T04:55:34.894Z,99.30
2018-01-10T04:58:02.399Z,99.30
2018-01-10T05:00:29.892Z,99.30
2018-01-10T05:02:58.155Z,99.30
2018-01-10T05:05:25.637Z,99.30
2018-01-10T05:07:53.892Z,99.30
2018-01-10T05:10:21.371Z,99.30
2018-01-10T05:12:48.890Z,99.60
2018-01-10T05:15:16.404Z,99.40
2018-01-10T05:17:44.662Z,99.30
2018-01-10T05:20:12.149Z,99.30
2018-01-10T05:22:40.408Z,99.40
2018-01-10T05:25:07.950Z,99.40
2018-01-10T05:27:35.429Z,99.40
2018-01-10T05:30:02.964Z,99.30
2018-01-10T05:32:30.391Z,99.40
2018-01-10T05:34:58.659Z,99.40
2018-01-10T05:37:26.929Z,99.30
2018-01-10T05:39:54.452Z,99.30
2018-01-10T05:42:21.941Z,99.40
2018-01-10T05:44:49.467Z,99.30
2018-01-10T05:47:16.964Z,99.30
2018-01-10T05:49:44.414Z,99.40
2018-01-10T05:52:11.917Z,99.30
2018-01-10T05:54:40.151Z,99.30
2018-01-10T05:57:07.638Z,99.20
2018-01-10T05:59:35.150Z,99.20
2018-01-10T06:02:02.649Z,99.30
2018-01-10T06:04:30.147Z,99.20
2018-01-10T06:06:58.469Z,99.20
2018-01-10T06:09:25.889Z,99.20
2018-01-10T06:11:54.158Z,99.30
2018-01-10T06:14:21.610Z,99.30
2018-01-10T06:16:49.096Z,99.30
2018-01-10T06:19:17.492Z,99.40
2018-01-10T06:21:45.738Z,99.40
2018-01-10T06:24:13.238Z,99.40
2018-01-10T06:26:40.720Z,99.40
2018-01-10T06:29:08.236Z,99.40
2018-01-10T06:31:36.426Z,99.40
2018-01-10T06:34:04.852Z,99.40
2018-01-10T06:36:34.125Z,99.40
2018-01-10T06:39:01.899Z,99.40
2018-01-10T06:41:29.395Z,99.30
2018-01-10T06:43:56.878Z,99.40
2018-01-10T06:46:24.403Z,99.30
2018-01-10T06:48:51.886Z,99.40
2018-01-10T06:51:19.382Z,99.50
2018-01-10T06:53:46.968Z,99.50
2018-01-10T06:56:14.381Z,99.50
2018-01-10T06:58:41.871Z,99.60
2018-01-10T07:01:09.361Z,99.60
2018-01-10T07:03:37.589Z,99.60
2018-01-10T07:06:05.238Z,99.60
2018-01-10T07:08:32.930Z,99.60
2018-01-10T07:11:01.139Z,99.60
2018-01-10T07:13:28.688Z,99.60
2018-01-10T07:15:56.216Z,99.60
2018-01-10T07:18:23.734Z,99.60
2018-01-10T07:20:52.011Z,99.60
2018-01-10T07:23:19.466Z,99.50
2018-01-10T07:25:46.939Z,99.40
2018-01-10T07:28:15.596Z,99.40
2018-01-10T07:30:43.269Z,99.40
2018-01-10T07:33:10.722Z,99.40
2018-01-10T07:35:38.213Z,99.40
2018-01-10T07:38:05.662Z,99.40
2018-01-10T07:40:33.134Z,99.40
2018-01-10T07:43:00.624Z,99.40
2018-01-10T07:45:28.883Z,99.40
2018-01-10T07:47:56.328Z,99.40
2018-01-10T07:50:23.851Z,99.40
2018-01-10T07:52:52.073Z,99.50
2018-01-10T07:55:19.578Z,99.50
2018-01-10T07:57:47.109Z,99.40
2018-01-10T08:00:14.591Z,99.50
2018-01-10T08:02:42.886Z,99.50
2018-01-10T08:05:10.409Z,99.50
2018-01-10T08:07:37.848Z,99.40
2018-01-10T08:10:05.346Z,99.40
2018-01-10T08:12:32.839Z,99.40
2018-01-10T08:15:00.328Z,99.50
2018-01-10T08:17:27.815Z,99.50
2018-01-10T08:19:55.244Z,99.50
2018-01-10T08:22:22.706Z,99.50
2018-01-10T08:24:50.167Z,99.40
2018-01-10T08:27:17.643Z,99.50
2018-01-10T08:29:45.108Z,99.40
2018-01-10T08:32:12.622Z,99.40
2018-01-10T08:34:40.858Z,99.40
2018-01-10T08:37:08.325Z,99.40
2018-01-10T08:39:35.806Z,99.40
2018-01-10T08:42:03.302Z,99.30
2018-01-10T08:44:30.762Z,99.40
2018-01-10T08:46:58.203Z,99.30
2018-01-10T08:49:25.673Z,99.40
2018-01-10T08:51:54.101Z,99.40
2018-01-10T08:54:21.581Z,99.40
2018-01-10T08:56:49.022Z,99.40
2018-01-10T08:59:16.508Z,99.40
2018-01-10T09:01:43.989Z,99.30
2018-01-10T09:04:11.555Z,99.30
2018-01-10T09:06:39.730Z,99.40
2018-01-10T09:09:07.203Z,99.30
2018-01-10T09:11:35.469Z,99.10
2018-01-10T09:14:02.931Z,99.40
2018-01-10T09:16:30.465Z,99.40
2018-01-10T09:18:57.965Z,99.40
2018-01-10T09:21:25.721Z,99.50
2018-01-10T09:23:53.244Z,99.40
2018-01-10T09:26:20.751Z,99.30
2018-01-10T09:28:48.173Z,99.30
2018-01-10T09:31:15.683Z,99.20
2018-01-10T09:33:43.123Z,99.30
2018-01-10T09:36:10.948Z,99.30
2018-01-10T09:38:39.218Z,99.30
2018-01-10T09:41:07.452Z,99.20
2018-01-10T09:43:34.967Z,99.20
2018-01-10T09:46:03.235Z,99.30
2018-01-10T09:48:30.717Z,99.30
2018-01-10T09:50:58.973Z,99.30
2018-01-10T09:53:26.452Z,99.30
2018-01-10T09:55:54.688Z,99.30
2018-01-10T09:58:22.330Z,99.20
2018-01-10T10:00:49.777Z,99.10
2018-01-10T10:03:17.284Z,98.80
2018-01-10T10:05:48.010Z,98.50
2018-01-10T10:08:15.643Z,98.80
2018-01-10T10:10:43.144Z,98.50
2018-01-10T10:13:10.633Z,98.30
2018-01-10T10:15:38.119Z,98.30
2018-01-10T10:18:07.064Z,98.40
2018-01-10T10:20:34.618Z,98.40
2018-01-10T10:23:02.102Z,97.80
2018-01-10T10:25:29.600Z,97.80
2018-01-10T10:27:57.071Z,97.60
2018-01-10T10:30:24.598Z,97.70
2018-01-10T10:32:52.089Z,97.70
2018-01-10T10:35:19.567Z,97.50
2018-01-10T10:37:46.998Z,97.70
2018-01-10T10:40:14.546Z,97.70
2018-01-10T10:42:42.051Z,97.70
2018-01-10T10:45:09.510Z,97.70
2018-01-10T10:47:36.995Z,97.70
2018-01-10T10:50:04.606Z,97.50
2018-01-10T10:52:32.786Z,97.40
2018-01-10T10:55:00.244Z,97.40
2018-01-10T10:57:27.755Z,97.40
2018-01-10T10:59:55.269Z,97.60
2018-01-10T11:02:23.553Z,97.60
2018-01-10T11:04:51.021Z,97.60
2018-01-10T11:07:18.646Z,97.30
2018-01-10T11:09:46.174Z,97.50
2018-01-10T11:12:14.425Z,97.50
2018-01-10T11:14:41.939Z,97.50
2018-01-10T11:17:09.469Z,97.20
2018-01-10T11:19:36.948Z,97.40
2018-01-10T11:22:05.288Z,97.00
2018-01-10T11:24:32.797Z,97.00
2018-01-10T11:27:00.297Z,97.00
2018-01-10T11:29:28.562Z,96.80
2018-01-10T11:31:56.086Z,96.80
2018-01-10T11:34:24.415Z,96.50
2018-01-10T11:36:52.015Z,96.50
2018-01-10T11:39:19.496Z,96.50
2018-01-10T11:41:47.349Z,96.30
2018-01-10T11:44:14.863Z,96.30
2018-01-10T11:46:42.350Z,96.00
2018-01-10T11:49:09.961Z,96.20
2018-01-10T11:51:37.466Z,96.10
2018-01-10T11:54:05.783Z,96.00
2018-01-10T11:56:35.574Z,96.00
2018-01-10T11:59:03.081Z,95.80
2018-01-10T12:01:31.391Z,94.60
2018-01-10T12:03:58.877Z,94.60
2018-01-10T12:06:26.425Z,93.70
2018-01-10T12:08:54.741Z,92.50
2018-01-10T12:11:22.182Z,92.50
2018-01-10T12:13:49.635Z,91.80
2018-01-10T12:16:17.132Z,90.80
2018-01-10T12:18:44.616Z,89.70
2018-01-10T12:21:12.188Z,87.90
2018-01-10T12:23:39.583Z,87.30
2018-01-10T12:26:07.083Z,86.60
2018-01-10T12:28:34.553Z,86.70
2018-01-10T12:31:02.131Z,87.50
2018-01-10T12:33:29.689Z,87.10
2018-01-10T12:35:57.183Z,87.40
2018-01-10T12:38:24.896Z,87.50
2018-01-10T12:40:52.441Z,86.60
2018-01-10T12:43:19.967Z,87.00
2018-01-10T12:45:48.272Z,87.40
2018-01-10T12:48:16.590Z,87.70
2018-01-10T12:50:44.099Z,87.70
2018-01-10T12:53:11.491Z,88.00
2018-01-10T12:55:39.338Z,88.60
2018-01-10T12:58:06.812Z,87.90
2018-01-10T13:00:34.322Z,87.40
2018-01-10T13:03:01.950Z,87.50
2018-01-10T13:05:29.842Z,86.70
2018-01-10T13:07:57.275Z,86.40
2018-01-10T13:10:24.784Z,86.60
2018-01-10T13:12:52.277Z,87.20
2018-01-10T13:15:20.488Z,83.70
2018-01-10T13:17:48.003Z,83.70
2018-01-10T13:20:15.530Z,83.60
2018-01-10T13:22:42.972Z,82.90
2018-01-10T13:25:10.443Z,81.70
2018-01-10T13:27:37.941Z,81.00
2018-01-10T13:30:05.403Z,81.80
2018-01-10T13:32:32.892Z,82.00
2018-01-10T13:35:00.615Z,82.50
2018-01-10T13:37:28.150Z,83.50
2018-01-10T13:39:55.655Z,81.90
2018-01-10T13:42:23.146Z,81.10
2018-01-10T13:44:50.670Z,80.80
2018-01-10T13:47:18.878Z,81.60
2018-01-10T13:49:46.383Z,81.60
2018-01-10T13:52:13.909Z,80.90
2018-01-10T13:54:41.360Z,82.80
2018-01-10T13:57:08.891Z,81.30
2018-01-10T13:59:36.354Z,82.10
2018-01-10T14:02:03.852Z,82.30
2018-01-10T14:04:31.403Z,82.40
2018-01-10T14:06:58.926Z,82.70
2018-01-10T14:09:26.349Z,82.60
2018-01-10T14:11:54.285Z,82.00
2018-01-10T14:14:21.797Z,83.00
2018-01-10T14:16:49.206Z,82.00
2018-01-10T14:19:16.726Z,82.90
2018-01-10T14:21:45.030Z,83.60
2018-01-10T14:24:12.647Z,83.60
2018-01-10T14:26:40.926Z,83.40
2018-01-10T14:29:09.121Z,83.80
2018-01-10T14:31:36.574Z,83.80
2018-01-10T14:34:04.126Z,83.70
2018-01-10T14:36:31.614Z,81.80
2018-01-10T14:38:59.866Z,84.20
2018-01-10T14:41:27.404Z,83.20
2018-01-10T14:43:54.902Z,83.20
2018-01-10T14:46:22.389Z,83.50
2018-01-10T14:48:49.842Z,83.70
2018-01-10T14:51:17.291Z,84.20
2018-01-10T14:53:44.777Z,84.20
2018-01-10T14:56:13.032Z,84.40
2018-01-10T14:58:40.525Z,84.40
2018-01-10T15:01:08.804Z,84.50
2018-01-10T15:03:36.252Z,84.40
2018-01-10T15:06:03.764Z,84.40
2018-01-10T15:08:31.269Z,84.60
2018-01-10T15:10:58.784Z,84.20
2018-01-10T15:13:26.281Z,84.60
2018-01-10T15:15:53.805Z,84.20
2018-01-10T15:18:22.038Z,84.70
2018-01-10T15:20:49.510Z,84.00
2018-01-10T15:23:17.012Z,83.90
2018-01-10T15:25:44.467Z,84.60
2018-01-10T15:28:11.915Z,84.30
2018-01-10T15:30:40.205Z,84.40
2018-01-10T15:33:08.451Z,85.30
2018-01-10T15:35:35.880Z,85.20
2018-01-10T15:38:03.445Z,85.20
2018-01-10T15:40:31.671Z,85.20
2018-01-10T15:42:59.127Z,85.10
2018-01-10T15:45:26.664Z,86.10
2018-01-10T15:47:54.128Z,86.50
2018-01-10T15:50:21.641Z,86.90
2018-01-10T15:52:49.948Z,87.20
2018-01-10T15:55:17.420Z,87.10
2018-01-10T15:57:44.929Z,87.70
2018-01-10T16:00:12.458Z,87.70
2018-01-10T16:02:39.935Z,87.60
2018-01-10T16:05:07.441Z,87.60
2018-01-10T16:07:34.936Z,87.40
2018-01-10T16:10:03.161Z,88.10
2018-01-10T16:12:30.686Z,87.40
2018-01-10T16:14:58.124Z,87.10
2018-01-10T16:17:25.646Z,87.40
2018-01-10T16:19:53.100Z,87.50
2018-01-10T16:22:20.588Z,87.60
2018-01-10T16:24:48.849Z,87.30
2018-01-10T16:27:16.321Z,87.30
2018-01-10T16:29:43.795Z,87.00
2018-01-10T16:32:12.032Z,86.90
2018-01-10T16:34:39.539Z,86.80
2018-01-10T16:37:06.980Z,87.20
2018-01-10T16:39:35.217Z,86.10
2018-01-10T16:42:02.725Z,86.10
2018-01-10T16:44:30.191Z,86.00
2018-01-10T16:46:57.642Z,85.70
2018-01-10T16:49:25.104Z,85.50
2018-01-10T16:51:52.635Z,85.60
2018-01-10T16:54:20.127Z,86.20
2018-01-10T16:56:47.550Z,86.30
2018-01-10T16:59:15.041Z,86.60
2018-01-10T17:01:42.528Z,86.80
2018-01-10T17:04:10.031Z,86.70
2018-01-10T17:06:38.584Z,87.10
2018-01-10T17:09:06.051Z,87.10
2018-01-10T17:11:34.309Z,87.20
2018-01-10T17:14:01.837Z,87.10
2018-01-10T17:16:29.291Z,87.50
2018-01-10T17:18:56.800Z,87.60
2018-01-10T17:21:24.265Z,87.60
2018-01-10T17:23:51.781Z,87.90
2018-01-10T17:26:19.236Z,88.30
2018-01-10T17:28:46.758Z,88.70
2018-01-10T17:31:14.274Z,88.90
2018-01-10T17:33:41.740Z,89.20
2018-01-10T17:36:10.088Z,89.60
2018-01-10T17:38:37.535Z,89.50
2018-01-10T17:41:05.812Z,90.10
2018-01-10T17:43:33.275Z,89.90
2018-01-10T17:46:00.783Z,90.10
2018-01-10T17:48:28.270Z,90.10
2018-01-10T17:50:55.749Z,90.20
2018-01-10T17:53:23.260Z,90.30
2018-01-10T17:55:51.435Z,90.50
2018-01-10T17:58:18.940Z,90.50
2018-01-10T18:00:46.460Z,90.60
2018-01-10T18:03:13.941Z,90.60
2018-01-10T18:05:41.396Z,90.60
2018-01-10T18:08:08.900Z,90.70
2018-01-10T18:10:36.464Z,90.80
2018-01-10T18:13:03.951Z,90.90
2018-01-10T18:15:31.451Z,91.10
2018-01-10T18:17:59.743Z,91.40
2018-01-10T18:20:27.183Z,91.40
2018-01-10T18:22:54.680Z,91.40
2018-01-10T18:25:22.232Z,91.60
2018-01-10T18:27:49.734Z,91.80
2018-01-10T18:30:17.148Z,92.00
2018-01-10T18:32:44.651Z,92.20
2018-01-10T18:35:12.118Z,92.40
2018-01-10T18:37:39.642Z,92.50
2018-01-10T18:40:07.975Z,92.40
2018-01-10T18:42:35.464Z,92.40
2018-01-10T18:45:03.135Z,92.60
2018-01-10T18:47:30.572Z,92.50
2018-01-10T18:49:58.069Z,92.50
2018-01-10T18:52:25.615Z,92.60
2018-01-10T18:54:53.044Z,92.50
2018-01-10T18:57:20.562Z,92.60
2018-01-10T18:59:48.081Z,92.70
2018-01-10T19:02:15.592Z,92.80
2018-01-10T19:04:43.101Z,93.00
2018-01-10T19:07:10.550Z,93.10
2018-01-10T19:09:38.056Z,93.10
2018-01-10T19:12:06.331Z,93.30
2018-01-10T19:14:34.592Z,93.30
2018-01-10T19:17:02.179Z,93.30
2018-01-10T19:19:29.586Z,93.30
2018-01-10T19:21:57.098Z,93.30
2018-01-10T19:24:25.362Z,93.30
2018-01-10T19:26:52.949Z,93.30
2018-01-10T19:29:20.418Z,93.30
2018-01-10T19:31:48.085Z,93.30
2018-01-10T19:34:15.649Z,93.30
2018-01-10T19:36:43.105Z,93.40
2018-01-10T19:39:11.424Z,93.30
2018-01-10T19:41:38.891Z,93.30
2018-01-10T19:44:06.425Z,93.40
2018-01-10T19:46:34.657Z,93.50
2018-01-10T19:49:02.144Z,93.40
2018-01-10T19:51:29.715Z,93.50
2018-01-10T19:53:57.142Z,93.60
2018-01-10T19:56:24.635Z,93.70
2018-01-10T19:58:52.920Z,94.00
2018-01-10T20:01:21.159Z,94.20
2018-01-10T20:03:48.592Z,94.10
2018-01-10T20:06:16.857Z,94.30
2018-01-10T20:08:44.364Z,94.30
2018-01-10T20:11:11.869Z,94.40
2018-01-10T20:13:40.141Z,94.50
2018-01-10T20:16:07.637Z,94.40
2018-01-10T20:18:35.125Z,94.60
2018-01-10T20:21:02.593Z,94.50
2018-01-10T20:23:30.118Z,94.80
2018-01-10T20:25:57.616Z,95.00
2018-01-10T20:28:25.088Z,94.90
2018-01-10T20:30:52.592Z,95.10
2018-01-10T20:33:20.854Z,95.30
2018-01-10T20:35:48.357Z,95.30
2018-01-10T20:38:15.890Z,95.40
2018-01-10T20:40:43.716Z,95.30
2018-01-10T20:43:11.187Z,95.40
2018-01-10T20:45:38.666Z,95.40
2018-01-10T20:48:06.199Z,95.20
2018-01-10T20:50:33.658Z,95.20
2018-01-10T20:53:01.148Z,95.20
2018-01-10T20:55:28.648Z,95.30
2018-01-10T20:57:56.967Z,95.40
2018-01-10T21:00:25.158Z,95.50
2018-01-10T21:02:52.649Z,95.40
2018-01-10T21:05:20.270Z,95.50
2018-01-10T21:07:47.991Z,95.60
2018-01-10T21:10:15.662Z,95.80
2018-01-10T21:12:43.193Z,95.70
2018-01-10T21:15:10.649Z,95.80
2018-01-10T21:17:38.206Z,95.80
2018-01-10T21:20:05.672Z,95.70
2018-01-10T21:22:33.182Z,95.70
2018-01-10T21:25:01.431Z,95.90
2018-01-10T21:27:28.930Z,95.90
2018-01-10T21:29:57.238Z,95.90
2018-01-10T21:32:24.724Z,95.90
2018-01-10T21:34:52.253Z,96.00
2018-01-10T21:37:20.545Z,96.10
2018-01-10T21:39:48.805Z,96.10
2018-01-10T21:42:17.097Z,96.20
2018-01-10T21:44:45.528Z,96.30
2018-01-10T21:47:13.042Z,96.30
2018-01-10T21:49:40.549Z,96.60
2018-01-10T21:52:08.056Z,96.60
2018-01-10T21:54:36.307Z,96.70
2018-01-10T21:57:03.804Z,96.70
2018-01-10T21:59:32.135Z,96.90
2018-01-10T22:01:59.528Z,96.90
2018-01-10T22:04:27.028Z,96.90
2018-01-10T22:06:54.645Z,97.00
2018-01-10T22:09:22.064Z,97.00
2018-01-10T22:11:49.587Z,97.00
2018-01-10T22:14:17.857Z,97.00
2018-01-10T22:16:45.394Z,96.90
2018-01-10T22:19:12.878Z,97.00
2018-01-10T22:21:40.363Z,97.00
2018-01-10T22:24:08.619Z,97.00
2018-01-10T22:26:36.082Z,96.90
2018-01-10T22:29:03.575Z,96.90
2018-01-10T22:31:31.054Z,96.90
2018-01-10T22:33:58.533Z,96.80
2018-01-10T22:36:26.290Z,96.80
2018-01-10T22:38:54.778Z,97.00
2018-01-10T22:41:22.327Z,96.90
2018-01-10T22:43:50.983Z,96.90
2018-01-10T22:46:18.428Z,96.90
2018-01-10T22:48:45.942Z,96.80
2018-01-10T22:51:13.463Z,96.90
2018-01-10T22:53:40.972Z,96.80
2018-01-10T22:56:08.522Z,96.80
2018-01-10T22:58:36.019Z,97.00
2018-01-10T23:01:03.766Z,96.80
2018-01-10T23:03:31.336Z,96.80
2018-01-10T23:05:58.840Z,97.00
2018-01-10T23:08:26.342Z,97.00
2018-01-10T23:10:54.603Z,97.20
2018-01-10T23:13:22.127Z,96.80
2018-01-10T23:15:49.620Z,96.90
2018-01-10T23:18:17.169Z,97.00
2018-01-10T23:20:44.641Z,97.00
2018-01-10T23:23:12.066Z,97.00
2018-01-10T23:25:39.559Z,97.00
2018-01-10T23:28:07.042Z,97.00
2018-01-10T23:30:34.581Z,97.00
2018-01-10T23:33:02.033Z,97.00
2018-01-10T23:35:29.550Z,97.00
2018-01-10T23:37:57.818Z,96.80
2018-01-10T23:40:25.285Z,96.80
2018-01-10T23:42:52.754Z,96.80
2018-01-10T23:45:21.004Z,96.80
2018-01-10T23:47:49.257Z,96.80
2018-01-10T23:50:16.732Z,97.10
2018-01-10T23:52:44.319Z,96.80
2018-01-10T23:55:12.518Z,96.80
2018-01-10T23:57:40.003Z,96.70
